sensor_id;sensor_type;location;lat;lon;timestamp;temperature;humidity
12164;DHT22;6145;50.192;10.064;2023-07-02T05:30:48;17.00;86.80
12164;DHT22;6145;50.192;10.064;2023-07-02T05:33:15;17.00;86.60
12164;DHT22;6145;50.192;10.064;2023-07-02T05:35:42;17.00;86.40
12164;DHT22;6145;50.192;10.064;2023-07-02T05:38:11;16.90;86.50
12164;DHT22;6145;50.192;10.064;2023-07-02T05:40:41;17.00;86.70
12164;DHT22;6145;50.192;10.064;2023-07-02T05:43:08;16.60;86.10
12164;DHT22;6145;50.192;10.064;2023-07-02T05:45:34;17.00;86.40
12164;DHT22;6145;50.192;10.064;2023-07-02T05:48:03;17.00;85.70
12164;DHT22;6145;50.192;10.064;2023-07-02T05:50:30;17.00;85.40
12164;DHT22;6145;50.192;10.064;2023-07-02T05:52:57;17.10;85.50
12164;DHT22;6145;50.192;10.064;2023-07-02T05:55:27;17.10;85.70
12164;DHT22;6145;50.192;10.064;2023-07-02T05:57:54;17.20;85.40
12164;DHT22;6145;50.192;10.064;2023-07-02T06:00:23;17.10;85.20
12164;DHT22;6145;50.192;10.064;2023-07-02T06:02:52;17.10;85.50
12164;DHT22;6145;50.192;10.064;2023-07-02T06:05:21;17.50;85.40
12164;DHT22;6145;50.192;10.064;2023-07-02T06:07:50;17.20;84.70
12164;DHT22;6145;50.192;10.064;2023-07-02T06:10:17;17.20;84.10
12164;DHT22;6145;50.192;10.064;2023-07-02T06:12:44;17.20;85.40
12164;DHT22;6145;50.192;10.064;2023-07-02T06:15:11;17.70;85.60
12164;DHT22;6145;50.192;10.064;2023-07-02T06:18:13;17.30;86.50
12164;DHT22;6145;50.192;10.064;2023-07-02T06:21:02;17.50;87.50
12164;DHT22;6145;50.192;10.064;2023-07-02T06:23:51;17.80;86.80
12164;DHT22;6145;50.192;10.064;2023-07-02T06:26:36;18.00;87.00
12164;DHT22;6145;50.192;10.064;2023-07-02T06:29:18;18.30;86.40
12164;DHT22;6145;50.192;10.064;2023-07-02T06:31:49;18.60;84.30
12164;DHT22;6145;50.192;10.064;2023-07-02T06:34:29;18.90;82.90
12164;DHT22;6145;50.192;10.064;2023-07-02T06:37:19;19.10;82.00
12164;DHT22;6145;50.192;10.064;2023-07-02T06:40:17;19.50;80.40
12164;DHT22;6145;50.192;10.064;2023-07-02T06:43:03;19.00;79.70
12164;DHT22;6145;50.192;10.064;2023-07-02T06:46:04;19.90;78.50
12164;DHT22;6145;50.192;10.064;2023-07-02T07:14:29;21.60;73.00
12164;DHT22;6145;50.192;10.064;2023-07-02T07:17:00;21.90;72.50
12164;DHT22;6145;50.192;10.064;2023-07-02T07:22:21;22.30;70.30
12164;DHT22;6145;50.192;10.064;2023-07-02T07:24:56;22.50;69.10
12164;DHT22;6145;50.192;10.064;2023-07-02T07:27:27;22.60;68.00
12164;DHT22;6145;50.192;10.064;2023-07-02T07:36:14;22.90;66.90
12164;DHT22;6145;50.192;10.064;2023-07-02T07:39:17;22.90;67.60
12164;DHT22;6145;50.192;10.064;2023-07-02T07:43:20;23.10;66.40
12164;DHT22;6145;50.192;10.064;2023-07-02T07:44:50;23.30;65.60
12164;DHT22;6145;50.192;10.064;2023-07-02T07:47:24;23.40;64.90
12164;DHT22;6145;50.192;10.064;2023-07-02T07:49:52;23.40;64.10
12164;DHT22;6145;50.192;10.064;2023-07-02T07:52:27;23.50;62.80
12164;DHT22;6145;50.192;10.064;2023-07-02T07:55:00;23.50;62.90
12164;DHT22;6145;50.192;10.064;2023-07-02T07:57:27;23.60;63.20
12164;DHT22;6145;50.192;10.064;2023-07-02T07:59:54;23.80;63.50
12164;DHT22;6145;50.192;10.064;2023-07-02T08:02:21;23.70;63.10
12164;DHT22;6145;50.192;10.064;2023-07-02T08:04:58;23.80;62.90
12164;DHT22;6145;50.192;10.064;2023-07-02T08:07:39;24.00;63.10
12164;DHT22;6145;50.192;10.064;2023-07-02T08:10:10;24.10;62.40
12164;DHT22;6145;50.192;10.064;2023-07-02T08:12:37;24.20;61.80
12164;DHT22;6145;50.192;10.064;2023-07-02T08:15:11;24.30;60.30
12164;DHT22;6145;50.192;10.064;2023-07-02T08:17:43;24.50;61.40
12164;DHT22;6145;50.192;10.064;2023-07-02T08:20:18;24.40;60.50
12164;DHT22;6145;50.192;10.064;2023-07-02T08:23:11;24.70;59.40
12164;DHT22;6145;50.192;10.064;2023-07-02T08:25:57;24.50;59.40
12164;DHT22;6145;50.192;10.064;2023-07-02T08:28:29;24.40;58.90
12164;DHT22;6145;50.192;10.064;2023-07-02T08:31:17;24.30;58.60
12164;DHT22;6145;50.192;10.064;2023-07-02T08:34:07;24.40;59.40
12164;DHT22;6145;50.192;10.064;2023-07-02T08:40:46;24.30;59.30
12164;DHT22;6145;50.192;10.064;2023-07-02T08:43:35;24.30;58.80
12164;DHT22;6145;50.192;10.064;2023-07-02T08:49:31;24.50;59.00
12164;DHT22;6145;50.192;10.064;2023-07-02T08:52:34;24.40;58.70
12164;DHT22;6145;50.192;10.064;2023-07-02T09:02:13;24.50;59.30
12164;DHT22;6145;50.192;10.064;2023-07-02T09:04:45;24.40;58.70
12164;DHT22;6145;50.192;10.064;2023-07-02T09:07:51;24.50;57.90
12164;DHT22;6145;50.192;10.064;2023-07-02T09:18:21;24.60;58.50
12164;DHT22;6145;50.192;10.064;2023-07-02T09:20:58;24.60;58.70
12164;DHT22;6145;50.192;10.064;2023-07-02T16:08:12;26.10;40.80
12164;DHT22;6145;50.192;10.064;2023-07-02T16:10:43;26.10;41.70
12164;DHT22;6145;50.192;10.064;2023-07-02T16:13:10;26.00;41.20
12164;DHT22;6145;50.192;10.064;2023-07-02T16:15:38;26.00;41.00
12164;DHT22;6145;50.192;10.064;2023-07-02T16:18:06;25.90;40.90
12164;DHT22;6145;50.192;10.064;2023-07-02T16:20:33;25.90;40.80
12164;DHT22;6145;50.192;10.064;2023-07-02T16:23:00;25.80;40.20
12164;DHT22;6145;50.192;10.064;2023-07-02T16:25:29;25.80;40.00
12164;DHT22;6145;50.192;10.064;2023-07-02T16:27:56;25.70;40.50
12164;DHT22;6145;50.192;10.064;2023-07-02T16:30:23;25.70;40.80
12164;DHT22;6145;50.192;10.064;2023-07-02T16:32:51;25.70;40.40
12164;DHT22;6145;50.192;10.064;2023-07-02T16:35:17;25.60;40.60
12164;DHT22;6145;50.192;10.064;2023-07-02T16:37:44;25.60;41.00
12164;DHT22;6145;50.192;10.064;2023-07-02T16:40:11;25.60;41.30
12164;DHT22;6145;50.192;10.064;2023-07-02T16:42:42;25.60;41.40
12164;DHT22;6145;50.192;10.064;2023-07-02T16:45:11;25.60;41.30
12164;DHT22;6145;50.192;10.064;2023-07-02T16:47:41;25.50;41.70
12164;DHT22;6145;50.192;10.064;2023-07-02T16:50:08;25.50;41.70
12164;DHT22;6145;50.192;10.064;2023-07-02T16:52:35;25.50;41.60
12164;DHT22;6145;50.192;10.064;2023-07-02T16:55:02;25.40;40.30
12164;DHT22;6145;50.192;10.064;2023-07-02T16:57:28;25.30;40.40
12164;DHT22;6145;50.192;10.064;2023-07-02T16:59:56;25.30;40.50
12164;DHT22;6145;50.192;10.064;2023-07-02T17:02:23;25.10;40.30
12164;DHT22;6145;50.192;10.064;2023-07-02T17:04:50;25.00;40.80
12164;DHT22;6145;50.192;10.064;2023-07-02T17:07:18;24.90;41.10
12164;DHT22;6145;50.192;10.064;2023-07-02T17:09:45;24.80;41.30
12164;DHT22;6145;50.192;10.064;2023-07-02T17:12:14;24.60;41.30
12164;DHT22;6145;50.192;10.064;2023-07-02T17:14:44;24.60;42.00
12164;DHT22;6145;50.192;10.064;2023-07-02T17:17:14;24.60;42.50
12164;DHT22;6145;50.192;10.064;2023-07-02T17:19:43;24.60;42.10
12164;DHT22;6145;50.192;10.064;2023-07-02T17:22:12;24.60;43.00
12164;DHT22;6145;50.192;10.064;2023-07-02T17:24:41;24.60;42.80
12164;DHT22;6145;50.192;10.064;2023-07-02T17:27:08;24.50;42.20
12164;DHT22;6145;50.192;10.064;2023-07-02T17:29:35;24.40;42.70
12164;DHT22;6145;50.192;10.064;2023-07-02T17:32:04;24.40;42.70
12164;DHT22;6145;50.192;10.064;2023-07-02T17:34:34;24.30;42.90
12164;DHT22;6145;50.192;10.064;2023-07-02T17:37:04;24.30;43.10
12164;DHT22;6145;50.192;10.064;2023-07-02T17:39:32;24.20;43.00
12164;DHT22;6145;50.192;10.064;2023-07-02T17:41:59;24.20;43.50
12164;DHT22;6145;50.192;10.064;2023-07-02T17:44:28;24.10;43.50
12164;DHT22;6145;50.192;10.064;2023-07-02T17:46:57;24.10;43.90
12164;DHT22;6145;50.192;10.064;2023-07-02T17:49:26;24.10;44.20
12164;DHT22;6145;50.192;10.064;2023-07-02T17:51:55;24.10;44.20
12164;DHT22;6145;50.192;10.064;2023-07-02T17:54:26;24.00;44.50
12164;DHT22;6145;50.192;10.064;2023-07-02T17:57:15;24.00;44.40
12164;DHT22;6145;50.192;10.064;2023-07-02T18:11:29;23.50;44.20
12164;DHT22;6145;50.192;10.064;2023-07-02T18:14:31;23.60;44.80
12164;DHT22;6145;50.192;10.064;2023-07-02T18:17:34;23.50;44.90
12164;DHT22;6145;50.192;10.064;2023-07-02T21:29:34;19.20;54.90
12164;DHT22;6145;50.192;10.064;2023-07-02T21:32:19;20.20;55.80
12164;DHT22;6145;50.192;10.064;2023-07-02T21:42:21;20.00;56.40
12164;DHT22;6145;50.192;10.064;2023-07-02T21:49:09;20.00;56.70
12164;DHT22;6145;50.192;10.064;2023-07-02T22:02:12;19.60;57.00
12164;DHT22;6145;50.192;10.064;2023-07-02T22:04:55;19.40;57.00
12164;DHT22;6145;50.192;10.064;2023-07-02T22:08:20;19.60;57.30
12164;DHT22;6145;50.192;10.064;2023-07-02T22:14:54;19.40;57.50
12164;DHT22;6145;50.192;10.064;2023-07-02T22:28:32;19.10;57.90
12164;DHT22;6145;50.192;10.064;2023-07-02T22:31:54;18.70;57.70
12164;DHT22;6145;50.192;10.064;2023-07-02T22:51:01;18.60;58.10
12164;DHT22;6145;50.192;10.064;2023-07-02T22:53:50;18.60;58.10
12164;DHT22;6145;50.192;10.064;2023-07-02T22:56:45;18.50;58.20
12164;DHT22;6145;50.192;10.064;2023-07-02T22:59:48;18.50;58.20
12164;DHT22;6145;50.192;10.064;2023-07-02T23:03:02;18.30;58.10
12164;DHT22;6145;50.192;10.064;2023-07-02T23:08:49;18.40;58.80
12164;DHT22;6145;50.192;10.064;2023-07-02T23:14:27;18.10;58.40
12164;DHT22;6145;50.192;10.064;2023-07-02T23:17:04;18.10;58.50
12164;DHT22;6145;50.192;10.064;2023-07-02T23:23:11;18.10;58.70
12164;DHT22;6145;50.192;10.064;2023-07-02T23:25:47;18.00;58.70
12164;DHT22;6145;50.192;10.064;2023-07-02T23:28:14;18.00;58.80
12164;DHT22;6145;50.192;10.064;2023-07-02T23:31:03;17.90;58.70
12164;DHT22;6145;50.192;10.064;2023-07-02T23:33:34;17.90;58.80
12164;DHT22;6145;50.192;10.064;2023-07-02T23:36:30;17.90;59.00
12164;DHT22;6145;50.192;10.064;2023-07-02T23:53:41;17.60;59.70
12164;DHT22;6145;50.192;10.064;2023-07-02T23:59:54;18.70;60.90
